West Union, Illinois
Current Conditions -  °F | °C
As of 9:55 PM on Friday 19 Dec 2014 (Local Time) from KRSV Reporting Station
Overcast Overcast  
Wind Chill: 32°   Ceiling: 11000
Heat Index: 32°   Visibility: 10mi
Dew Point: 27°   Wind: 3mph
Humidity: 82%   Direction: 80°E
Pressure: 30.3"   Gusts: NA
Location:  39.22°N, 87.67°W
Report Text: KRSV 200355Z AUTO 08003KT 10SM OVC110 00/M03 A3030 RMK AO2 T10021030
Loading
Personal Weather Stations






























Interactive Weather Map New forecast layout! Learn more

10-Day Weather Forecast

Advertisements
Track Severe Weather on mobile